Time;durP1;ratioP1;P1;durP2;ratioP2;P2;SDS_P1;SDS_P2;PMS_P1;PMS_P2;Temp;Humidity;BMP_temperature;BMP_pressure;BME280_temperature;BME280_humidity;BME280_pressure;Samples;Min_cycle;Max_cycle;Signal;HPM_P1;HPM_P2
2021/03/28 00:01:08;;;;;;;15.23;5.32;;;;;;;;;;4994895;28;20755;-80
2021/03/28 00:03:39;;;;;;;19.00;5.97;;;;;;;;;;4977300;28;20557;-80
2021/03/28 00:06:14;;;;;;;18.30;6.05;;;;;;;;;;4976786;28;20054;-80
2021/03/28 00:08:43;;;;;;;26.00;5.85;;;;;;;;;;4979824;28;20683;-80
2021/03/28 00:11:19;;;;;;;20.25;7.40;;;;;;;;;;4977163;28;20125;-80
2021/03/28 00:13:51;;;;;;;18.77;6.72;;;;;;;;;;4977640;28;20101;-81
2021/03/28 00:16:19;;;;;;;18.35;7.03;;;;;;;;;;4977020;28;20062;-80
2021/03/28 00:18:54;;;;;;;18.30;6.75;;;;;;;;;;4977221;28;20097;-81
2021/03/28 00:21:51;;;;;;;22.25;6.63;;;;;;;;;;4977072;28;20466;-80
2021/03/28 00:24:18;;;;;;;20.10;7.18;;;;;;;;;;4957672;28;20061;-80
2021/03/28 00:26:50;;;;;;;18.70;6.57;;;;;;;;;;4993542;28;20050;-81
2021/03/28 00:29:24;;;;;;;19.73;7.05;;;;;;;;;;4976865;28;20070;-81
2021/03/28 00:31:56;;;;;;;19.92;7.05;;;;;;;;;;4994550;28;20105;-81
2021/03/28 00:34:28;;;;;;;27.35;7.03;;;;;;;;;;4976614;28;20094;-80
2021/03/28 00:36:56;;;;;;;25.92;6.70;;;;;;;;;;4976512;28;20054;-81
2021/03/28 00:39:34;;;;;;;20.38;6.90;;;;;;;;;;4975051;28;20066;-81
2021/03/28 00:42:21;;;;;;;27.55;7.72;;;;;;;;;;4993989;28;20618;-80
2021/03/28 00:44:52;;;;;;;22.50;7.05;;;;;;;;;;4993673;28;20164;-81
2021/03/28 00:47:21;;;;;;;25.48;6.80;;;;;;;;;;4976348;28;20046;-80
2021/03/28 00:49:49;;;;;;;28.67;7.63;;;;;;;;;;4976876;28;20074;-81
2021/03/28 00:52:15;;;;;;;22.85;6.47;;;;;;;;;;4977305;28;20050;-81
2021/03/28 00:54:47;;;;;;;17.88;6.57;;;;;;;;;;4977715;28;20121;-80
2021/03/28 00:57:22;;;;;;;24.73;7.00;;;;;;;;;;4976396;28;20046;-81
2021/03/28 00:59:48;;;;;;;;;;;;;;;;;;4977275;28;20105;-80
2021/03/28 01:02:28;;;;;;;17.88;6.22;;;;;;;;;;4993601;28;19953;-81
2021/03/28 01:04:55;;;;;;;25.48;7.20;;;;;;;;;;4976274;28;20742;-80
2021/03/28 01:07:35;;;;;;;26.13;7.15;;;;;;;;;;4976053;28;20120;-81
2021/03/28 01:10:17;;;;;;;23.80;5.45;;;;;;;;;;4993499;28;20490;-80
2021/03/28 01:12:59;;;;;;;26.08;6.47;;;;;;;;;;4973108;28;20093;-81
2021/03/28 01:15:45;;;;;;;25.73;6.43;;;;;;;;;;4971626;28;20050;-81
2021/03/28 01:18:21;;;;;;;29.20;7.78;;;;;;;;;;4973547;28;20050;-80
2021/03/28 01:21:06;;;;;;;20.80;6.15;;;;;;;;;;4990938;28;20193;-80
2021/03/28 01:23:36;;;;;;;30.20;7.30;;;;;;;;;;4972577;28;20165;-81
2021/03/28 01:26:09;;;;;;;17.38;6.03;;;;;;;;;;4972669;28;20415;-80
2021/03/28 01:28:44;;;;;;;23.77;6.80;;;;;;;;;;4993415;28;20523;-80
2021/03/28 01:31:23;;;;;;;29.85;8.07;;;;;;;;;;4975423;28;20156;-81
2021/03/28 01:33:55;;;;;;;18.85;6.97;;;;;;;;;;4975561;28;20070;-80
2021/03/28 01:36:29;;;;;;;25.55;6.50;;;;;;;;;;4975483;28;20139;-80
2021/03/28 01:38:59;;;;;;;25.30;6.25;;;;;;;;;;4989652;28;20061;-81
2021/03/28 01:41:30;;;;;;;24.23;6.28;;;;;;;;;;4992967;28;20085;-81
2021/03/28 01:43:59;;;;;;;27.20;6.20;;;;;;;;;;4992112;28;20054;-80
2021/03/28 01:46:36;;;;;;;23.95;6.95;;;;;;;;;;4973001;28;20112;-81
2021/03/28 01:49:13;;;;;;;28.52;7.00;;;;;;;;;;4973455;28;20097;-81
2021/03/28 01:51:52;;;;;;;16.48;6.07;;;;;;;;;;4975513;28;20407;-80
2021/03/28 01:54:37;;;;;;;29.42;7.05;;;;;;;;;;4970465;28;20121;-81
2021/03/28 01:57:13;;;;;;;36.83;7.20;;;;;;;;;;4971916;28;20194;-81
2021/03/28 01:59:49;;;;;;;27.85;6.65;;;;;;;;;;4974077;28;20050;-81
2021/03/28 02:02:45;;;;;;;23.70;6.85;;;;;;;;;;4975017;28;20050;-81
2021/03/28 02:05:11;;;;;;;33.65;7.47;;;;;;;;;;4907704;28;20107;-81
2021/03/28 02:07:47;;;;;;;24.73;6.38;;;;;;;;;;4975531;28;20050;-81
2021/03/28 02:10:19;;;;;;;33.78;6.38;;;;;;;;;;4990849;28;20074;-81
2021/03/28 02:12:54;;;;;;;27.45;7.03;;;;;;;;;;4992695;28;20046;-81
2021/03/28 02:15:37;;;;;;;35.93;7.37;;;;;;;;;;4976095;28;20050;-81
2021/03/28 02:18:16;;;;;;;26.20;6.38;;;;;;;;;;4952901;28;20341;-81
2021/03/28 02:20:57;;;;;;;16.92;6.68;;;;;;;;;;4970629;28;20412;-80
2021/03/28 02:23:27;;;;;;;23.40;7.13;;;;;;;;;;4973213;28;20566;-80
2021/03/28 02:26:07;;;;;;;32.47;6.50;;;;;;;;;;4973529;28;20051;-80
2021/03/28 02:28:45;;;;;;;34.50;6.57;;;;;;;;;;4972919;28;20135;-80
2021/03/28 02:31:29;;;;;;;30.05;6.72;;;;;;;;;;4973211;28;20079;-80
2021/03/28 02:34:01;;;;;;;27.70;6.53;;;;;;;;;;4955731;28;20093;-80
2021/03/28 02:36:32;;;;;;;28.13;6.25;;;;;;;;;;4982982;28;20137;-80
2021/03/28 02:39:19;;;;;;;28.23;7.70;;;;;;;;;;4992619;28;20088;-80
2021/03/28 02:42:04;;;;;;;30.35;7.32;;;;;;;;;;4935602;28;20078;-81
2021/03/28 02:44:46;;;;;;;30.98;7.30;;;;;;;;;;4960000;28;20101;-81
2021/03/28 02:47:31;;;;;;;27.75;7.88;;;;;;;;;;4959243;28;20134;-81
2021/03/28 02:50:08;;;;;;;33.58;8.35;;;;;;;;;;4975935;28;20054;-81
2021/03/28 02:52:50;;;;;;;27.38;7.47;;;;;;;;;;4996241;28;20081;-80
2021/03/28 02:55:20;;;;;;;26.50;7.28;;;;;;;;;;4978761;28;20042;-80
2021/03/28 02:58:04;;;;;;;30.63;8.00;;;;;;;;;;4995586;28;20467;-81
2021/03/28 03:00:32;;;;;;;24.10;7.47;;;;;;;;;;4978774;28;20062;-80
2021/03/28 03:02:59;;;;;;;35.60;8.45;;;;;;;;;;4995612;28;20061;-81
2021/03/28 03:05:46;;;;;;;42.75;8.55;;;;;;;;;;4978323;28;20057;-81
2021/03/28 03:08:19;;;;;;;26.98;7.70;;;;;;;;;;4978330;28;20093;-81
2021/03/28 03:10:52;;;;;;;29.90;6.82;;;;;;;;;;4989922;28;20061;-81
2021/03/28 03:13:35;;;;;;;34.10;7.22;;;;;;;;;;4978320;28;20090;-81
2021/03/28 03:16:07;;;;;;;34.50;7.07;;;;;;;;;;4979195;28;20046;-81
2021/03/28 03:18:48;;;;;;;34.88;7.50;;;;;;;;;;4978010;28;20077;-80
2021/03/28 03:21:34;;;;;;;39.67;7.10;;;;;;;;;;4978551;28;20077;-81
2021/03/28 03:24:28;;;;;;;27.42;7.47;;;;;;;;;;4995678;28;20042;-81
2021/03/28 03:27:13;;;;;;;26.52;6.10;;;;;;;;;;4978123;28;20050;-81
2021/03/28 03:29:56;;;;;;;33.20;6.43;;;;;;;;;;4978071;28;20077;-81
2021/03/28 03:32:41;;;;;;;28.20;6.63;;;;;;;;;;4978202;28;20511;-81
2021/03/28 03:35:36;;;;;;;36.10;6.32;;;;;;;;;;4978282;28;20081;-81
2021/03/28 03:38:13;;;;;;;31.00;6.55;;;;;;;;;;4977851;28;20085;-81
2021/03/28 03:40:59;;;;;;;38.00;6.70;;;;;;;;;;4986851;28;20053;-81
2021/03/28 03:43:49;;;;;;;27.38;6.65;;;;;;;;;;4977979;28;20093;-81
2021/03/28 03:46:28;;;;;;;37.60;6.95;;;;;;;;;;4975351;28;20756;-81
2021/03/28 03:49:16;;;;;;;30.23;6.97;;;;;;;;;;4974888;28;20074;-81
2021/03/28 03:51:58;;;;;;;22.40;6.20;;;;;;;;;;4982909;28;20448;-81
2021/03/28 03:54:34;;;;;;;32.83;7.43;;;;;;;;;;4990406;28;20050;-81
2021/03/28 03:57:16;;;;;;;20.67;6.20;;;;;;;;;;4977318;28;20050;-81
2021/03/28 03:59:58;;;;;;;33.55;6.78;;;;;;;;;;4958595;28;20050;-80
2021/03/28 04:02:31;;;;;;;33.55;7.70;;;;;;;;;;4993122;28;20081;-81
2021/03/28 04:05:13;;;;;;;29.90;6.85;;;;;;;;;;4994801;28;20078;-81
2021/03/28 04:07:59;;;;;;;34.35;6.47;;;;;;;;;;4976443;28;20799;-81
2021/03/28 04:10:44;;;;;;;29.98;6.72;;;;;;;;;;4994200;28;20050;-81
2021/03/28 04:13:11;;;;;;;;;;;;;;;;;;4975583;28;20051;-81
2021/03/28 04:15:50;;;;;;;29.30;6.68;;;;;;;;;;4975019;28;20292;-81
2021/03/28 04:18:32;;;;;;;27.70;6.63;;;;;;;;;;4974821;28;20050;-80
2021/03/28 04:21:02;;;;;;;26.27;6.28;;;;;;;;;;4988004;28;20176;-80
2021/03/28 04:23:48;;;;;;;30.05;6.75;;;;;;;;;;4994223;28;20054;-80
2021/03/28 04:26:20;;;;;;;;;;;;;;;;;;4993615;28;20086;-80
2021/03/28 04:28:47;;;;;;;23.13;6.68;;;;;;;;;;4977071;28;19976;-80
2021/03/28 04:31:20;;;;;;;23.48;5.95;;;;;;;;;;4977057;28;20073;-80
2021/03/28 04:34:01;;;;;;;27.23;6.60;;;;;;;;;;4976823;28;20108;-81
2021/03/28 04:36:37;;;;;;;32.08;7.00;;;;;;;;;;4976464;28;20550;-81
2021/03/28 04:39:22;;;;;;;40.65;6.47;;;;;;;;;;4980065;28;20677;-80
2021/03/28 04:42:07;;;;;;;22.80;6.60;;;;;;;;;;4988217;28;20586;-80
2021/03/28 04:44:58;;;;;;;31.88;6.63;;;;;;;;;;4976300;28;20054;-80
2021/03/28 04:47:25;;;;;;;37.92;6.55;;;;;;;;;;4975906;28;20054;-81
2021/03/28 04:50:18;;;;;;;29.92;7.25;;;;;;;;;;4976190;28;20074;-81
2021/03/28 04:53:05;;;;;;;24.92;5.63;;;;;;;;;;4973105;28;20078;-80
2021/03/28 04:55:50;;;;;;;27.65;6.68;;;;;;;;;;4976138;28;20053;-80
2021/03/28 04:58:39;;;;;;;36.25;6.10;;;;;;;;;;4957882;28;20051;-79
2021/03/28 05:01:06;;;;;;;;;;;;;;;;;;4964078;28;20093;-79
2021/03/28 05:03:33;;;;;;;25.35;5.72;;;;;;;;;;4993732;28;19953;-81
2021/03/28 05:06:26;;;;;;;19.02;5.88;;;;;;;;;;4975304;28;20050;-81
2021/03/28 05:09:12;;;;;;;35.97;6.63;;;;;;;;;;4973064;28;20105;-80
2021/03/28 05:11:58;;;;;;;35.75;5.68;;;;;;;;;;4987215;28;20113;-84
2021/03/28 05:14:24;;;;;;;;;;;;;;;;;;4984524;28;20125;-81
2021/03/28 05:17:03;;;;;;;24.95;6.25;;;;;;;;;;4986927;28;19926;-81
2021/03/28 05:19:48;;;;;;;40.88;5.50;;;;;;;;;;4993893;28;20059;-83
2021/03/28 05:22:43;;;;;;;27.05;6.10;;;;;;;;;;4971304;28;20066;-86
2021/03/28 05:25:28;;;;;;;22.75;6.03;;;;;;;;;;4977228;28;20050;-86
2021/03/28 05:28:03;;;;;;;28.50;6.22;;;;;;;;;;4975504;28;20054;-84
2021/03/28 05:30:56;;;;;;;19.25;6.05;;;;;;;;;;4993488;28;20104;-82
2021/03/28 05:33:23;;;;;;;27.75;5.85;;;;;;;;;;4976412;28;20057;-84
2021/03/28 05:36:12;;;;;;;26.25;6.28;;;;;;;;;;4976486;28;20066;-82
2021/03/28 05:38:48;;;;;;;32.35;6.05;;;;;;;;;;4981607;28;20054;-85
2021/03/28 05:41:18;;;;;;;23.50;5.15;;;;;;;;;;4977739;28;20078;-87
2021/03/28 05:44:05;;;;;;;33.97;6.15;;;;;;;;;;4977177;28;20087;-84
2021/03/28 05:46:51;;;;;;;34.35;5.75;;;;;;;;;;4993573;28;20055;-83
2021/03/28 05:49:37;;;;;;;31.33;6.43;;;;;;;;;;4976298;28;20050;-83
2021/03/28 05:52:08;;;;;;;20.42;5.40;;;;;;;;;;4975791;28;20140;-84
2021/03/28 05:54:35;;;;;;;25.00;5.43;;;;;;;;;;4976562;28;20070;-83
2021/03/28 05:57:21;;;;;;;18.33;5.63;;;;;;;;;;4976765;28;20054;-82
2021/03/28 06:00:03;;;;;;;19.70;5.00;;;;;;;;;;4975121;28;20389;-83
2021/03/28 06:02:33;;;;;;;26.45;6.47;;;;;;;;;;4974917;28;20066;-84
2021/03/28 06:05:19;;;;;;;25.38;4.85;;;;;;;;;;4978146;28;20058;-84
2021/03/28 06:07:55;;;;;;;22.88;5.28;;;;;;;;;;4992908;28;20488;-84
2021/03/28 06:10:34;;;;;;;27.88;5.75;;;;;;;;;;4991380;28;20058;-83
2021/03/28 06:13:11;;;;;;;32.30;6.05;;;;;;;;;;4990907;28;20054;-84
2021/03/28 06:15:38;;;;;;;32.20;6.13;;;;;;;;;;4974394;28;20793;-84
2021/03/28 06:18:20;;;;;;;19.23;4.68;;;;;;;;;;4977651;28;20046;-84
2021/03/28 06:20:56;;;;;;;22.33;4.60;;;;;;;;;;4997167;28;20499;-84
2021/03/28 06:23:46;;;;;;;26.60;4.68;;;;;;;;;;4979667;28;20050;-83
2021/03/28 06:26:31;;;;;;;15.10;4.65;;;;;;;;;;4979728;28;20050;-87
2021/03/28 06:28:58;;;;;;;;;;;;;;;;;;4980588;28;20049;-85
2021/03/28 06:31:43;;;;;;;33.80;5.45;;;;;;;;;;4979481;28;19957;-86
2021/03/28 06:34:25;;;;;;;24.10;4.90;;;;;;;;;;4979740;28;20090;-85
2021/03/28 06:36:52;;;;;;;30.05;4.90;;;;;;;;;;4995563;28;20042;-84
2021/03/28 06:39:39;;;;;;;19.23;4.68;;;;;;;;;;4976951;28;20117;-84
2021/03/28 06:42:25;;;;;;;21.42;5.00;;;;;;;;;;4981134;28;20054;-84
2021/03/28 06:45:10;;;;;;;24.60;5.15;;;;;;;;;;4979470;28;20050;-83
2021/03/28 06:47:39;;;;;;;;;;;;;;;;;;4979783;28;20495;-84
2021/03/28 06:50:26;;;;;;;27.42;5.15;;;;;;;;;;4996602;28;20352;-82
2021/03/28 06:52:57;;;;;;;25.27;5.32;;;;;;;;;;4986994;28;20455;-84
2021/03/28 06:55:30;;;;;;;24.27;5.03;;;;;;;;;;4979667;28;20430;-84
2021/03/28 06:58:05;;;;;;;23.08;5.15;;;;;;;;;;4978955;28;20186;-82
2021/03/28 07:00:37;;;;;;;20.08;4.63;;;;;;;;;;4979346;28;20399;-84
2021/03/28 07:03:23;;;;;;;20.58;4.57;;;;;;;;;;4978746;28;20058;-84
2021/03/28 07:06:00;;;;;;;23.65;5.35;;;;;;;;;;4959598;28;20058;-83
2021/03/28 07:08:31;;;;;;;25.13;5.07;;;;;;;;;;4975102;28;20058;-83
2021/03/28 07:10:59;;;;;;;13.98;4.15;;;;;;;;;;4974964;28;20132;-81
2021/03/28 07:13:28;;;;;;;23.63;6.18;;;;;;;;;;4975401;28;20078;-84
2021/03/28 07:16:00;;;;;;;27.63;5.90;;;;;;;;;;4973197;28;20050;-84
2021/03/28 07:18:48;;;;;;;20.90;4.43;;;;;;;;;;4975096;28;20057;-83
2021/03/28 07:21:15;;;;;;;22.13;4.78;;;;;;;;;;4973306;28;20124;-83
2021/03/28 07:24:23;;;;;;;21.33;4.90;;;;;;;;;;4975251;28;20411;-82
2021/03/28 07:27:09;;;;;;;27.08;4.93;;;;;;;;;;4974919;28;20309;-80
2021/03/28 07:29:37;;;;;;;;;;;;;;;;;;4995031;28;20050;-82
2021/03/28 07:32:24;;;;;;;24.98;5.00;;;;;;;;;;4996011;28;19969;-83
2021/03/28 07:35:12;;;;;;;18.90;4.50;;;;;;;;;;4970766;28;20056;-82
2021/03/28 07:37:44;;;;;;;20.55;5.25;;;;;;;;;;4994145;28;20089;-81
2021/03/28 07:40:15;;;;;;;26.33;5.40;;;;;;;;;;4995148;28;20101;-81
2021/03/28 07:43:05;;;;;;;16.73;4.75;;;;;;;;;;4992321;28;20077;-81
2021/03/28 07:45:58;;;;;;;21.88;5.72;;;;;;;;;;4970429;28;20051;-81
2021/03/28 07:48:37;;;;;;;17.45;4.43;;;;;;;;;;4988969;28;20085;-82
2021/03/28 07:51:26;;;;;;;22.83;5.03;;;;;;;;;;4974114;28;20156;-82
2021/03/28 07:54:08;;;;;;;19.05;5.15;;;;;;;;;;4976000;28;20052;-83
2021/03/28 07:56:55;;;;;;;22.00;5.57;;;;;;;;;;4977724;28;20137;-81
2021/03/28 07:59:36;;;;;;;18.63;4.50;;;;;;;;;;4979651;28;20081;-82
2021/03/28 08:02:10;;;;;;;16.80;4.45;;;;;;;;;;4977840;28;20133;-82
2021/03/28 08:04:59;;;;;;;18.08;5.72;;;;;;;;;;4994530;28;20042;-82
2021/03/28 08:07:40;;;;;;;21.83;5.38;;;;;;;;;;4958392;28;20106;-82
2021/03/28 08:10:16;;;;;;;22.58;5.75;;;;;;;;;;4974117;28;20053;-83
2021/03/28 08:13:02;;;;;;;19.98;5.30;;;;;;;;;;4994013;28;20074;-84
2021/03/28 08:15:31;;;;;;;17.45;4.50;;;;;;;;;;4977905;28;20133;-84
2021/03/28 08:17:58;;;;;;;20.75;5.20;;;;;;;;;;4977855;28;20058;-82
2021/03/28 08:20:44;;;;;;;15.77;5.00;;;;;;;;;;4976639;28;20066;-83
2021/03/28 08:23:29;;;;;;;21.77;5.15;;;;;;;;;;4995665;28;20052;-83
2021/03/28 08:26:14;;;;;;;11.70;4.33;;;;;;;;;;4994677;28;20046;-82
2021/03/28 08:28:41;;;;;;;20.23;4.07;;;;;;;;;;4972613;28;20089;-81
2021/03/28 08:31:16;;;;;;;16.75;4.53;;;;;;;;;;4976545;28;20148;-81
2021/03/28 08:33:49;;;;;;;20.08;4.60;;;;;;;;;;4976074;28;20132;-81
2021/03/28 08:36:36;;;;;;;19.23;4.97;;;;;;;;;;4991543;28;20082;-82
2021/03/28 08:39:07;;;;;;;21.77;5.88;;;;;;;;;;4973270;28;20042;-82
2021/03/28 08:41:52;;;;;;;17.05;4.60;;;;;;;;;;4976208;28;20233;-81
2021/03/28 08:44:41;;;;;;;19.60;4.93;;;;;;;;;;4976023;28;20050;-81
2021/03/28 08:47:26;;;;;;;18.00;4.82;;;;;;;;;;4976135;28;20077;-81
2021/03/28 08:50:14;;;;;;;14.13;4.43;;;;;;;;;;4974141;28;20050;-81
2021/03/28 08:52:55;;;;;;;17.35;4.40;;;;;;;;;;4994062;28;20074;-81
2021/03/28 08:55:41;;;;;;;18.42;4.85;;;;;;;;;;4965415;28;20054;-81
2021/03/28 08:58:25;;;;;;;28.63;7.97;;;;;;;;;;4976705;28;20051;-81
2021/03/28 09:01:05;;;;;;;22.20;4.70;;;;;;;;;;4970668;28;20056;-81
2021/03/28 09:03:53;;;;;;;22.35;5.13;;;;;;;;;;4988220;28;20474;-81
2021/03/28 09:06:26;;;;;;;24.30;5.95;;;;;;;;;;4968490;28;20148;-81
2021/03/28 09:08:55;;;;;;;25.63;5.32;;;;;;;;;;4989044;28;20074;-81
2021/03/28 09:11:32;;;;;;;22.80;4.93;;;;;;;;;;4975575;28;20077;-83
2021/03/28 09:14:04;;;;;;;21.27;5.25;;;;;;;;;;4973254;28;20046;-79
2021/03/28 09:16:47;;;;;;;20.50;4.93;;;;;;;;;;4972900;28;20043;-79
2021/03/28 09:19:43;;;;;;;17.98;4.85;;;;;;;;;;4971597;28;20066;-80
2021/03/28 09:22:18;;;;;;;26.45;5.05;;;;;;;;;;4920181;28;20079;-78
2021/03/28 09:24:55;;;;;;;16.55;5.15;;;;;;;;;;4975402;28;20534;-79
2021/03/28 09:27:41;;;;;;;19.98;4.45;;;;;;;;;;4992169;28;20403;-80
2021/03/28 09:30:17;;;;;;;18.15;4.72;;;;;;;;;;4970289;28;20058;-81
2021/03/28 09:32:51;;;;;;;14.70;4.95;;;;;;;;;;4993288;28;20061;-82
2021/03/28 09:35:36;;;;;;;18.73;5.22;;;;;;;;;;4993673;28;20082;-84
2021/03/28 09:38:32;;;;;;;21.33;4.28;;;;;;;;;;4967990;28;20120;-82
2021/03/28 09:41:00;;;;;;;15.90;4.15;;;;;;;;;;4969811;28;20074;-83
2021/03/28 09:43:46;;;;;;;11.52;4.28;;;;;;;;;;4994734;28;20072;-83
2021/03/28 09:46:22;;;;;;;17.80;4.57;;;;;;;;;;4975170;28;20126;-83
2021/03/28 09:49:01;;;;;;;14.02;4.22;;;;;;;;;;4974202;28;20046;-83
2021/03/28 09:51:47;;;;;;;21.05;5.60;;;;;;;;;;4970843;28;20085;-83
2021/03/28 09:54:23;;;;;;;17.35;4.60;;;;;;;;;;4976036;28;20057;-83
2021/03/28 09:56:50;;;;;;;16.15;4.53;;;;;;;;;;4993054;28;20046;-83
2021/03/28 09:59:36;;;;;;;20.83;5.40;;;;;;;;;;4975590;28;20050;-83
2021/03/28 10:02:03;;;;;;;;;;;;;;;;;;4967469;28;20129;-83
2021/03/28 10:04:49;;;;;;;19.98;4.35;;;;;;;;;;4973806;28;19926;-83
2021/03/28 10:07:22;;;;;;;13.43;3.90;;;;;;;;;;4984974;28;20054;-82
2021/03/28 10:10:15;;;;;;;18.35;4.63;;;;;;;;;;4969923;28;20050;-83
2021/03/28 10:12:45;;;;;;;18.50;4.60;;;;;;;;;;4946841;28;20062;-83
2021/03/28 10:15:17;;;;;;;23.25;4.90;;;;;;;;;;4972836;28;20117;-83
2021/03/28 10:18:09;;;;;;;16.52;4.68;;;;;;;;;;4991753;28;20439;-83
2021/03/28 10:20:54;;;;;;;17.25;4.38;;;;;;;;;;4975220;28;20129;-84
2021/03/28 10:23:37;;;;;;;17.17;4.60;;;;;;;;;;4992749;28;20758;-84
2021/03/28 10:26:29;;;;;;;13.80;4.15;;;;;;;;;;4976108;28;20056;-81
2021/03/28 10:29:03;;;;;;;14.25;3.20;;;;;;;;;;4975135;28;20372;-83
2021/03/28 10:31:59;;;;;;;16.65;4.03;;;;;;;;;;4992381;28;20054;-83
2021/03/28 10:34:47;;;;;;;17.90;4.03;;;;;;;;;;4907918;28;20048;-87
2021/03/28 10:37:49;;;;;;;12.90;3.83;;;;;;;;;;4971335;28;20047;-82
2021/03/28 10:40:18;;;;;;;11.43;3.58;;;;;;;;;;4990998;28;20046;-83
2021/03/28 10:42:48;;;;;;;12.57;3.85;;;;;;;;;;4972404;28;20058;-83
2021/03/28 10:45:34;;;;;;;12.48;4.03;;;;;;;;;;4975404;28;20050;-83
2021/03/28 10:48:20;;;;;;;15.52;3.55;;;;;;;;;;4974824;28;20062;-83
2021/03/28 10:50:51;;;;;;;17.98;4.20;;;;;;;;;;4956184;28;20050;-83
2021/03/28 10:53:37;;;;;;;16.02;3.60;;;;;;;;;;4981528;28;20050;-83
2021/03/28 10:56:23;;;;;;;15.38;4.22;;;;;;;;;;4975135;28;20046;-83
2021/03/28 10:58:50;;;;;;;;;;;;;;;;;;4986917;28;20101;-82
2021/03/28 11:01:17;;;;;;;17.13;4.18;;;;;;;;;;4974367;28;20450;-83
2021/03/28 11:03:46;;;;;;;13.70;3.67;;;;;;;;;;4975760;28;20084;-82
2021/03/28 11:06:36;;;;;;;15.68;3.80;;;;;;;;;;4980803;28;20070;-82
2021/03/28 11:09:09;;;;;;;13.85;3.50;;;;;;;;;;4978823;28;20134;-82
2021/03/28 11:11:42;;;;;;;12.07;4.05;;;;;;;;;;4995630;28;20046;-82
2021/03/28 11:14:30;;;;;;;8.40;3.08;;;;;;;;;;4977763;28;20046;-82
2021/03/28 11:16:59;;;;;;;16.83;3.20;;;;;;;;;;4978266;28;20050;-82
2021/03/28 11:19:45;;;;;;;16.52;3.60;;;;;;;;;;4980634;28;20042;-82
2021/03/28 11:22:19;;;;;;;11.48;3.08;;;;;;;;;;4987024;28;20050;-82
2021/03/28 11:25:05;;;;;;;10.50;3.53;;;;;;;;;;4988570;28;20450;-82
2021/03/28 11:27:50;;;;;;;13.13;3.70;;;;;;;;;;4977026;28;20050;-81
2021/03/28 11:30:26;;;;;;;14.65;3.83;;;;;;;;;;4985999;28;20054;-82
2021/03/28 11:33:08;;;;;;;11.02;3.75;;;;;;;;;;4975164;28;20384;-81
2021/03/28 11:35:37;;;;;;;10.65;3.30;;;;;;;;;;4992891;28;20056;-82
2021/03/28 11:38:17;;;;;;;14.55;3.75;;;;;;;;;;4991876;28;20927;-81
2021/03/28 11:40:46;;;;;;;11.25;3.22;;;;;;;;;;4993209;28;20685;-80
2021/03/28 11:43:15;;;;;;;13.45;3.88;;;;;;;;;;4993968;28;20078;-81
2021/03/28 11:45:42;;;;;;;11.18;3.30;;;;;;;;;;4993595;28;20483;-81
2021/03/28 11:48:41;;;;;;;9.57;3.53;;;;;;;;;;4978910;28;20054;-81
2021/03/28 11:51:20;;;;;;;11.35;4.28;;;;;;;;;;4993275;28;20078;-80
2021/03/28 11:53:55;;;;;;;8.55;3.30;;;;;;;;;;4975089;28;20047;-80
2021/03/28 11:56:41;;;;;;;9.73;4.70;;;;;;;;;;4991510;28;20046;-80
2021/03/28 11:59:22;;;;;;;13.32;5.15;;;;;;;;;;4955989;28;20074;-80
2021/03/28 12:01:55;;;;;;;11.50;3.00;;;;;;;;;;4955191;28;20142;-80
2021/03/28 12:04:31;;;;;;;14.57;3.92;;;;;;;;;;4974768;28;20059;-80
2021/03/28 12:07:16;;;;;;;15.13;4.78;;;;;;;;;;4956779;28;20055;-79
2021/03/28 12:09:44;;;;;;;16.05;4.82;;;;;;;;;;4973162;28;20754;-79
2021/03/28 12:12:20;;;;;;;12.82;3.63;;;;;;;;;;4993595;28;20129;-79
2021/03/28 12:14:47;;;;;;;;;;;;;;;;;;4975816;28;20058;-79
2021/03/28 12:17:15;;;;;;;8.85;3.13;;;;;;;;;;4973413;28;19948;-79
2021/03/28 12:19:45;;;;;;;9.77;3.53;;;;;;;;;;4991191;28;20121;-79
2021/03/28 12:22:19;;;;;;;13.57;3.22;;;;;;;;;;4975482;28;20456;-79
2021/03/28 12:24:46;;;;;;;14.65;5.35;;;;;;;;;;4993564;28;20137;-80
2021/03/28 12:27:23;;;;;;;14.35;5.53;;;;;;;;;;4976654;28;20509;-79
2021/03/28 12:29:50;;;;;;;10.57;3.40;;;;;;;;;;4993720;28;20128;-79
2021/03/28 12:32:36;;;;;;;11.65;3.20;;;;;;;;;;4993523;28;20069;-79
2021/03/28 12:35:21;;;;;;;16.10;3.70;;;;;;;;;;4993686;28;20137;-79
2021/03/28 12:37:49;;;;;;;12.35;4.72;;;;;;;;;;4975652;28;20089;-79
2021/03/28 12:40:24;;;;;;;16.55;4.13;;;;;;;;;;4993016;28;20459;-79
2021/03/28 12:42:51;;;;;;;;;;;;;;;;;;4976385;28;20050;-79
2021/03/28 12:45:18;;;;;;;13.13;3.17;;;;;;;;;;4975026;28;20275;-79
2021/03/28 12:48:05;;;;;;;12.63;3.22;;;;;;;;;;4974471;28;20073;-79
2021/03/28 12:50:35;;;;;;;12.02;3.40;;;;;;;;;;4990286;28;20078;-77
2021/03/28 12:53:13;;;;;;;9.87;3.63;;;;;;;;;;4990936;28;20047;-77
2021/03/28 12:55:48;;;;;;;17.55;3.92;;;;;;;;;;4990456;28;20084;-77
2021/03/28 12:58:22;;;;;;;20.30;5.78;;;;;;;;;;4973711;28;20373;-77
2021/03/28 13:01:01;;;;;;;19.13;5.70;;;;;;;;;;4988970;28;20165;-78
2021/03/28 13:03:43;;;;;;;16.13;5.03;;;;;;;;;;4973652;28;20058;-78
2021/03/28 13:06:16;;;;;;;8.63;3.75;;;;;;;;;;4972585;28;20041;-77
2021/03/28 13:08:48;;;;;;;12.65;3.38;;;;;;;;;;4991787;28;20061;-77
2021/03/28 13:11:15;;;;;;;17.85;4.30;;;;;;;;;;4992431;28;20565;-77
2021/03/28 13:13:46;;;;;;;13.30;3.13;;;;;;;;;;4990201;28;20046;-77
2021/03/28 13:16:25;;;;;;;9.48;3.00;;;;;;;;;;4978411;28;20056;-77
2021/03/28 13:18:55;;;;;;;12.00;3.40;;;;;;;;;;4994245;28;20038;-77
2021/03/28 13:21:31;;;;;;;9.65;3.47;;;;;;;;;;4992137;28;20432;-78
2021/03/28 13:24:13;;;;;;;16.40;5.25;;;;;;;;;;4991962;28;20443;-78
2021/03/28 13:27:00;;;;;;;11.13;3.10;;;;;;;;;;4995085;28;20077;-76
2021/03/28 13:29:37;;;;;;;11.48;4.00;;;;;;;;;;4973632;28;20467;-79
2021/03/28 13:32:04;;;;;;;13.48;4.30;;;;;;;;;;4990854;28;20046;-79
2021/03/28 13:34:34;;;;;;;10.13;3.80;;;;;;;;;;4975799;28;20074;-79
2021/03/28 13:37:12;;;;;;;15.43;4.32;;;;;;;;;;4973749;28;20084;-80
2021/03/28 13:39:41;;;;;;;21.02;5.93;;;;;;;;;;4991382;28;20117;-80
2021/03/28 13:42:20;;;;;;;11.95;3.30;;;;;;;;;;4973415;28;20403;-79
2021/03/28 13:44:52;;;;;;;15.45;5.50;;;;;;;;;;4972586;28;20046;-79
2021/03/28 13:47:31;;;;;;;9.65;3.67;;;;;;;;;;4988821;28;20058;-78
2021/03/28 13:50:15;;;;;;;12.32;3.75;;;;;;;;;;4989274;28;20054;-76
2021/03/28 13:52:43;;;;;;;18.08;4.65;;;;;;;;;;4979829;28;20502;-77
2021/03/28 13:55:12;;;;;;;11.75;4.10;;;;;;;;;;4962237;28;20062;-77
2021/03/28 13:57:40;;;;;;;20.48;4.32;;;;;;;;;;4978888;28;20054;-76
2021/03/28 14:00:19;;;;;;;12.70;3.42;;;;;;;;;;4958417;28;20093;-78
2021/03/28 14:02:48;;;;;;;9.57;3.50;;;;;;;;;;4962168;28;20138;-77
2021/03/28 14:05:17;;;;;;;13.27;4.10;;;;;;;;;;4979890;28;20077;-77
2021/03/28 14:07:44;;;;;;;14.25;5.03;;;;;;;;;;4979966;28;20062;-77
2021/03/28 14:10:19;;;;;;;15.60;6.05;;;;;;;;;;4961551;28;20081;-77
2021/03/28 14:12:52;;;;;;;21.25;9.43;;;;;;;;;;4962997;28;20470;-77
2021/03/28 14:15:38;;;;;;;13.30;5.25;;;;;;;;;;4963765;28;20105;-77
2021/03/28 14:18:12;;;;;;;10.82;3.97;;;;;;;;;;4964488;28;20759;-77
2021/03/28 14:20:46;;;;;;;15.07;5.45;;;;;;;;;;4981353;28;20081;-77
2021/03/28 14:23:20;;;;;;;12.98;3.80;;;;;;;;;;4966538;28;20137;-78
2021/03/28 14:25:47;;;;;;;11.07;3.85;;;;;;;;;;4982021;28;20193;-78
2021/03/28 14:28:28;;;;;;;17.10;4.88;;;;;;;;;;4966934;28;20057;-78
2021/03/28 14:31:05;;;;;;;17.02;5.07;;;;;;;;;;4982407;28;20500;-77
2021/03/28 14:33:47;;;;;;;13.13;6.60;;;;;;;;;;4982016;28;20153;-77
2021/03/28 14:36:34;;;;;;;17.27;5.72;;;;;;;;;;4980538;28;20057;-78
2021/03/28 14:39:09;;;;;;;21.17;6.38;;;;;;;;;;4985281;28;20043;-78
2021/03/28 14:41:44;;;;;;;15.65;5.32;;;;;;;;;;4986816;28;20097;-78
2021/03/28 14:44:15;;;;;;;21.23;5.53;;;;;;;;;;4969212;28;20137;-77
2021/03/28 14:46:43;;;;;;;18.60;6.03;;;;;;;;;;4970309;28;20047;-77
2021/03/28 14:49:18;;;;;;;23.80;6.38;;;;;;;;;;4985386;28;20418;-77
2021/03/28 14:52:08;;;;;;;21.88;7.32;;;;;;;;;;4984759;28;20081;-78
2021/03/28 14:54:36;;;;;;;26.55;7.88;;;;;;;;;;4986113;28;20061;-77
2021/03/28 14:57:04;;;;;;;21.00;6.45;;;;;;;;;;4987039;28;20157;-78
2021/03/28 15:00:18;;;;;;;25.42;9.82;;;;;;;;;;4972750;28;20563;-78
2021/03/28 15:03:04;;;;;;;22.23;7.00;;;;;;;;;;4987400;28;20112;-78
2021/03/28 15:05:51;;;;;;;19.10;7.75;;;;;;;;;;4988017;28;20140;-79
2021/03/28 15:08:21;;;;;;;17.00;6.55;;;;;;;;;;4986070;28;20057;-79
2021/03/28 15:11:00;;;;;;;24.27;8.18;;;;;;;;;;4989703;28;20401;-81
2021/03/28 15:13:35;;;;;;;20.15;7.25;;;;;;;;;;4970613;28;20097;-79
2021/03/28 15:16:09;;;;;;;;;;;;;;;;;;4986973;28;20074;-80
2021/03/28 15:18:36;;;;;;;19.85;7.22;;;;;;;;;;4987747;28;19957;-80
2021/03/28 15:21:08;;;;;;;30.25;7.82;;;;;;;;;;4972462;28;20737;-80
2021/03/28 15:24:02;;;;;;;24.45;6.75;;;;;;;;;;4971975;28;20101;-81
2021/03/28 15:26:35;;;;;;;20.25;6.35;;;;;;;;;;4984103;28;20570;-81
2021/03/28 15:29:18;;;;;;;26.27;7.20;;;;;;;;;;4974341;28;20058;-80
2021/03/28 15:31:59;;;;;;;23.77;7.07;;;;;;;;;;4969467;28;20054;-80
2021/03/28 15:34:47;;;;;;;26.23;7.43;;;;;;;;;;4989668;28;20056;-81
2021/03/28 15:37:28;;;;;;;22.73;6.35;;;;;;;;;;4974372;28;20340;-82
2021/03/28 15:40:14;;;;;;;20.45;6.35;;;;;;;;;;4990821;28;20046;-80